Portada
METAR-TAF:

METAR-TAF

Aeroports :

Timimoun, Algèria

latitud: 29-15N, longitud: 000-17E, altitud: 312 m

Observació

L'informe es va fer fa 52 minuts, a les 21:00 UTC
Vent 13 kt del Est/Nord-Est
Temperatura 30°C
Humitat 14%
Pressió 1011 hPa
Visibilitat: 8000 m

METAR: DAUT 222100Z 07013KT 8000 NSC 30/00 Q1011

Hora: 22:52 (21:52 UTC)

Pronòstic

L'informe es va fer fa 1 hora i 52 minuts, a les 20:00 UTC
Pronòstic vàlid del 22 a les 21 UTC al 23 a les 06 UTC
Vent 12 kt del Est
Visibilitat: 8000 m

TAF: DAUT 222000Z 2221/2306 08012KT 8000 NSC

Observacions i pronòstics meteorològics de més de 4000 aeroports (METAR i TAF).

Les estacions disponibles són els punts grocs i vermells al mapa.

Posi el ratolí al punt desitjat per veure el nom de l'estació.

Feu clic per veure les observacions i els pronòstics meteorològics.

Per canviar el mapa: feu clic els botons verds amb una creu de color negre per apropar; al botó verd amb un guió per allunyar la imatge; o en les fletxes verdes per a mapes adjacents.


METAR-TAF: